Time;durP1;ratioP1;P1;durP2;ratioP2;P2;SDS_P1;SDS_P2;PMS_P1;PMS_P2;Temp;Humidity;BMP_temperature;BMP_pressure;BME280_temperature;BME280_humidity;BME280_pressure;Samples;Min_cycle;Max_cycle;Signal;HPM_P1;HPM_P2
2023/07/03 00:02:19;;;;;;;;;2.00;2.00;;;;;20.36;43.32;100864.28;5076191;27;63352;-74
2023/07/03 00:04:45;;;;;;;;;6.25;2.50;;;;;20.37;43.45;100868.66;5080023;27;64415;-74
2023/07/03 00:07:11;;;;;;;;;2.75;1.50;;;;;20.37;43.66;100872.16;5072648;28;45749;-74
2023/07/03 00:09:37;;;;;;;;;4.75;3.75;;;;;20.32;43.87;100863.63;5079306;27;46111;-74
2023/07/03 00:12:02;;;;;;;;;4.25;3.00;;;;;20.31;43.90;100869.91;5080497;27;67287;-74
2023/07/03 00:14:27;;;;;;;;;3.50;1.25;;;;;20.31;43.99;100864.59;5079270;27;45399;-75
2023/07/03 00:16:55;;;;;;;;;1.50;1.00;;;;;20.32;43.75;100868.94;5077289;27;64203;-74
2023/07/03 00:19:25;;;;;;;;;1.00;1.00;;;;;20.30;44.03;100866.38;5074592;27;45500;-74
2023/07/03 00:21:50;;;;;;;;;5.25;2.00;;;;;20.32;44.53;100866.28;5070034;28;46308;-73
2023/07/03 00:24:16;;;;;;;;;2.00;2.00;;;;;20.32;44.44;100860.97;5078562;27;58241;-74
2023/07/03 00:26:41;;;;;;;;;3.75;2.00;;;;;20.29;44.75;100856.72;5076541;28;65645;-73
2023/07/03 00:29:06;;;;;;;;;3.75;2.25;;;;;20.26;45.07;100864.91;5073904;28;55611;-75
2023/07/03 00:31:32;;;;;;;;;2.00;2.00;;;;;20.25;44.50;100854.38;5055864;27;69313;-73
2023/07/03 00:33:58;;;;;;;;;6.75;3.00;;;;;20.25;44.66;100849.06;5073722;28;71561;-73
2023/07/03 00:36:24;;;;;;;;;5.50;2.00;;;;;20.24;45.12;100840.22;5072769;27;45468;-73
2023/07/03 00:38:49;;;;;;;;;2.25;2.00;;;;;20.22;45.01;100836.84;5078240;27;45405;-73
2023/07/03 00:41:15;;;;;;;;;2.75;1.75;;;;;20.23;44.85;100840.31;5078777;27;45555;-73
2023/07/03 00:43:40;;;;;;;;;4.00;2.75;;;;;20.24;45.34;100842.03;5074949;27;64075;-73
2023/07/03 00:46:10;;;;;;;;;4.25;3.00;;;;;20.25;45.44;100849.06;5069689;28;45306;-73
2023/07/03 00:48:36;;;;;;;;;3.75;2.00;;;;;20.24;45.18;100850.88;5078850;27;45739;-73
2023/07/03 00:51:02;;;;;;;;;1.25;0.00;;;;;20.23;45.47;100848.31;5075732;28;45425;-73
2023/07/03 00:53:28;;;;;;;;;4.25;2.50;;;;;20.24;45.88;100845.53;5076885;27;51281;-74
2023/07/03 00:55:53;;;;;;;;;3.00;2.00;;;;;20.21;45.50;100835.13;5077413;28;45386;-74
2023/07/03 00:58:19;;;;;;;;;3.75;2.00;;;;;20.20;46.56;100844.06;5076803;27;45560;-74
2023/07/03 01:00:51;;;;;;;;;3.50;2.25;;;;;20.19;46.05;100844.16;5076348;28;46468;-75
2023/07/03 01:03:25;;;;;;;;;4.75;2.50;;;;;20.15;46.37;100842.63;5077846;28;45850;-75
2023/07/03 01:05:51;;;;;;;;;4.00;2.00;;;;;20.12;46.31;100842.84;5065316;28;45309;-75
2023/07/03 01:08:17;;;;;;;;;2.75;2.75;;;;;20.10;46.03;100843.78;5071772;28;52404;-75
2023/07/03 01:10:43;;;;;;;;;5.75;1.50;;;;;20.10;46.13;100846.44;5075825;28;45445;-75
2023/07/03 01:13:13;;;;;;;;;3.00;3.00;;;;;20.09;46.90;100841.22;5076456;28;61114;-75
2023/07/03 01:15:40;;;;;;;;;4.00;3.00;;;;;20.06;46.68;100844.06;5072440;28;45843;-75
2023/07/03 01:18:07;;;;;;;;;5.00;2.00;;;;;20.05;46.32;100840.56;5070645;27;45545;-75
2023/07/03 01:20:37;;;;;;;;;5.50;4.00;;;;;20.06;46.81;100836.09;5075770;28;65606;-73
2023/07/03 01:23:11;;;;;;;;;2.50;2.00;;;;;20.04;47.06;100841.56;5075515;27;47954;-73
2023/07/03 01:25:39;;;;;;;;;3.50;2.25;;;;;20.03;46.70;100837.19;5058509;28;45217;-73
2023/07/03 01:28:07;;;;;;;;;5.00;2.00;;;;;20.05;46.65;100837.91;5071969;28;45473;-74
2023/07/03 01:30:33;;;;;;;;;4.75;1.25;;;;;20.06;46.73;100833.44;5067277;28;48135;-74
2023/07/03 01:32:59;;;;;;;;;9.25;3.25;;;;;20.07;47.12;100840.47;5070614;28;45374;-74
2023/07/03 01:35:26;;;;;;;;;5.00;2.00;;;;;20.07;47.02;100838.66;5068685;27;45441;-74
2023/07/03 01:37:53;;;;;;;;;3.00;3.00;;;;;20.05;46.95;100839.75;5050169;28;45649;-74
2023/07/03 01:40:21;;;;;;;;;4.25;3.00;;;;;20.05;46.99;100839.75;5071461;27;48262;-73
2023/07/03 01:42:47;;;;;;;;;7.25;3.50;;;;;20.07;47.15;100848.44;5074143;28;45540;-73
2023/07/03 01:45:13;;;;;;;;;9.25;5.00;;;;;20.05;46.69;100837.91;5076327;27;46294;-73
2023/07/03 01:47:38;;;;;;;;;5.00;3.00;;;;;20.05;47.03;100847.72;5072533;27;45379;-73
2023/07/03 01:50:11;;;;;;;;;3.75;3.00;;;;;20.07;47.41;100841.31;5065644;27;47124;-73
2023/07/03 01:52:40;;;;;;;;;3.25;3.00;;;;;20.07;47.70;100843.13;5070749;28;45453;-74
2023/07/03 01:55:24;;;;;;;;;2.00;2.00;;;;;20.06;47.30;100846.72;5068275;28;45322;-74
2023/07/03 01:58:00;;;;;;;;;5.00;3.00;;;;;20.06;47.45;100846.72;5077058;28;45376;-74
2023/07/03 02:00:36;;;;;;;;;7.25;4.00;;;;;20.04;47.66;100846.00;5064539;28;47492;-74
2023/07/03 02:03:06;;;;;;;;;8.00;3.00;;;;;20.03;47.56;100837.19;5077604;27;45453;-74
2023/07/03 02:05:34;;;;;;;;;5.00;3.00;;;;;20.00;47.82;100836.53;5064531;28;45446;-74
2023/07/03 02:08:01;;;;;;;;;5.75;3.25;;;;;19.98;48.30;100844.59;5078406;27;45991;-74
2023/07/03 02:10:26;;;;;;;;;5.00;3.00;;;;;19.96;48.08;100837.69;5074751;27;47322;-74
2023/07/03 02:12:52;;;;;;;;;4.50;3.00;;;;;19.97;47.95;100834.91;5075077;27;45420;-73
2023/07/03 02:15:17;;;;;;;;;5.00;3.00;;;;;19.96;48.25;100835.88;5080418;27;61564;-74
2023/07/03 02:17:43;;;;;;;;;4.50;3.00;;;;;19.98;48.03;100838.44;5080189;27;53801;-74
2023/07/03 02:20:14;;;;;;;;;7.25;4.00;;;;;19.96;48.20;100833.22;5074580;28;46249;-73
2023/07/03 02:22:41;;;;;;;;;5.50;3.00;;;;;19.95;48.54;100828.00;5070513;28;45395;-73
2023/07/03 02:25:07;;;;;;;;;6.50;4.25;;;;;19.95;48.35;100825.34;5081206;28;45321;-75
2023/07/03 02:27:32;;;;;;;;;6.75;4.50;;;;;19.98;48.23;100833.13;5074090;27;45503;-74
2023/07/03 02:29:58;;;;;;;;;7.75;3.25;;;;;19.97;48.48;100823.44;5078874;28;45263;-73
2023/07/03 02:32:32;;;;;;;;;7.50;4.25;;;;;19.96;48.31;100819.09;5079105;27;45556;-73
2023/07/03 02:34:57;;;;;;;;;3.50;3.00;;;;;19.92;49.31;100810.47;5077868;28;45460;-73
2023/07/03 02:37:23;;;;;;;;;9.25;4.25;;;;;19.90;48.67;100812.34;5074722;27;57735;-73
2023/07/03 02:39:48;;;;;;;;;5.25;4.00;;;;;19.87;48.54;100810.75;5063033;28;46194;-73
2023/07/03 02:42:13;;;;;;;;;7.25;4.00;;;;;19.88;48.74;100820.44;5079070;28;73701;-73
2023/07/03 02:44:39;;;;;;;;;7.00;3.25;;;;;19.90;49.28;100826.50;5079116;27;55008;-74
2023/07/03 02:47:05;;;;;;;;;4.75;3.00;;;;;19.89;49.03;100818.63;5078461;27;45463;-73
2023/07/03 02:49:30;;;;;;;;;5.00;4.50;;;;;19.87;48.99;100818.72;5072291;28;46258;-73
2023/07/03 02:51:55;;;;;;;;;4.00;4.00;;;;;19.86;49.08;100824.13;5070689;27;67714;-73
2023/07/03 02:54:21;;;;;;;;;7.00;3.50;;;;;19.86;49.23;100829.44;5080688;27;45348;-74
2023/07/03 02:56:46;;;;;;;;;7.00;5.25;;;;;19.84;49.55;100828.69;5073797;28;60032;-73
2023/07/03 02:59:14;;;;;;;;;6.75;3.50;;;;;19.80;49.32;100820.06;5066434;28;63130;-73
2023/07/03 03:01:39;;;;;;;;;6.00;6.00;;;;;19.80;49.67;100832.50;5078120;27;45224;-74
2023/07/03 03:04:05;;;;;;;;;3.50;3.25;;;;;19.80;50.10;100825.38;5072474;27;45296;-73
2023/07/03 03:06:31;;;;;;;;;10.50;7.00;;;;;19.79;49.72;100817.50;5080516;27;69493;-74
2023/07/03 03:08:57;;;;;;;;;9.50;5.00;;;;;19.80;49.30;100822.72;5061735;28;47202;-74
2023/07/03 03:11:22;;;;;;;;;5.50;3.00;;;;;19.79;49.49;100823.66;5061633;28;45625;-73
2023/07/03 03:13:47;;;;;;;;;8.50;5.50;;;;;19.80;50.29;100822.72;5072020;27;69156;-73
2023/07/03 03:16:13;;;;;;;;;4.25;3.50;;;;;19.76;49.67;100818.56;5071559;28;45485;-73
2023/07/03 03:18:38;;;;;;;;;5.25;4.50;;;;;19.76;49.88;100825.66;5064874;28;48170;-73
2023/07/03 03:21:04;;;;;;;;;6.00;6.00;;;;;19.73;49.35;100809.00;5078084;28;45351;-73
2023/07/03 03:23:29;;;;;;;;;10.00;6.00;;;;;19.76;50.00;100812.38;5074275;28;56472;-73
2023/07/03 03:25:54;;;;;;;;;5.75;3.50;;;;;19.70;49.75;100803.84;5071622;27;45477;-73
2023/07/03 03:28:20;;;;;;;;;6.75;5.00;;;;;19.70;49.78;100803.84;5052109;28;48146;-73
2023/07/03 03:30:45;;;;;;;;;6.00;4.25;;;;;19.72;49.82;100809.91;5069729;28;45407;-73
2023/07/03 03:33:11;;;;;;;;;6.00;4.00;;;;;19.71;49.91;100815.31;5072228;28;45381;-73
2023/07/03 03:35:36;;;;;;;;;4.25;4.25;;;;;19.69;49.83;100810.13;5079412;28;45624;-72
2023/07/03 03:38:01;;;;;;;;;8.75;5.00;;;;;19.69;49.73;100812.75;5058191;28;47372;-73
2023/07/03 03:40:27;;;;;;;;;5.25;4.25;;;;;19.67;49.69;100817.31;5076619;27;45263;-73
2023/07/03 03:42:53;;;;;;;;;6.50;6.00;;;;;19.66;49.92;100817.41;5060146;28;45454;-72
2023/07/03 03:45:18;;;;;;;;;10.00;6.50;;;;;19.65;49.67;100803.28;5096717;27;45706;-73
2023/07/03 03:47:43;;;;;;;;;7.00;5.50;;;;;19.68;49.89;100807.56;5056270;28;66395;-74
2023/07/03 03:50:09;;;;;;;;;9.50;5.25;;;;;19.65;49.50;100808.59;5078078;27;63995;-73
2023/07/03 03:52:34;;;;;;;;;11.00;7.25;;;;;19.68;49.83;100807.56;5073923;27;45337;-73
2023/07/03 03:54:59;;;;;;;;;9.00;6.00;;;;;19.67;49.62;100801.41;5073484;28;59881;-73
2023/07/03 03:57:25;;;;;;;;;11.00;5.00;;;;;19.66;50.28;100812.13;5074421;28;46340;-74
2023/07/03 03:59:50;;;;;;;;;6.25;5.75;;;;;19.65;50.56;100813.03;5061036;28;45477;-73
2023/07/03 04:02:16;;;;;;;;;11.25;6.25;;;;;19.65;50.30;100819.19;5067829;27;45606;-74
2023/07/03 04:04:41;;;;;;;;;6.50;5.00;;;;;19.66;49.89;100812.97;5074641;27;66957;-73
2023/07/03 04:07:07;;;;;;;;;6.25;5.50;;;;;19.64;50.34;100817.50;5054217;28;46919;-73
2023/07/03 04:09:32;;;;;;;;;7.75;5.25;;;;;19.65;51.02;100824.50;5088905;27;45735;-73
2023/07/03 04:11:57;;;;;;;;;4.50;4.50;;;;;19.64;50.63;100820.16;5073012;27;58546;-72
2023/07/03 04:14:23;;;;;;;;;9.00;5.75;;;;;19.64;50.54;100819.31;5079636;27;66385;-73
2023/07/03 04:16:49;;;;;;;;;7.00;5.25;;;;;19.65;50.35;100815.69;5070325;28;57444;-73
2023/07/03 04:19:18;;;;;;;;;13.00;7.00;;;;;19.69;50.76;100817.22;5069117;27;74088;-73
2023/07/03 04:21:44;;;;;;;;;6.25;5.00;;;;;19.67;50.97;100806.72;5075872;28;45316;-73
2023/07/03 04:24:09;;;;;;;;;8.75;6.00;;;;;19.70;50.88;100817.09;5071683;27;45587;-74
2023/07/03 04:26:38;;;;;;;;;4.75;4.75;;;;;19.67;50.86;100809.38;5073881;28;68323;-73
2023/07/03 04:29:04;;;;;;;;;6.00;5.00;;;;;19.71;50.71;100823.28;5077015;28;45799;-73
2023/07/03 04:31:31;;;;;;;;;8.00;5.00;;;;;19.72;51.55;100817.00;5078670;27;45599;-74
2023/07/03 04:33:56;;;;;;;;;8.00;4.50;;;;;19.69;51.52;100812.75;5073831;28;45759;-73
2023/07/03 04:36:22;;;;;;;;;5.00;5.00;;;;;19.70;51.78;100814.47;5067474;28;46372;-74
2023/07/03 04:38:47;;;;;;;;;7.50;6.75;;;;;19.68;51.29;100811.03;5075054;27;74270;-74
2023/07/03 04:41:14;;;;;;;;;6.25;4.25;;;;;19.70;51.23;100814.47;5078699;28;48991;-74
2023/07/03 04:43:44;;;;;;;;;6.75;4.75;;;;;19.71;51.45;100807.38;5060131;28;45477;-74
2023/07/03 04:46:10;;;;;;;;;9.00;5.75;;;;;19.72;51.30;100806.38;5071357;28;45474;-73
2023/07/03 04:48:35;;;;;;;;;7.25;5.75;;;;;19.75;51.59;100811.53;5056860;28;46035;-74
2023/07/03 04:51:01;;;;;;;;;9.75;7.00;;;;;19.76;51.09;100804.44;5074669;27;45556;-74
2023/07/03 04:53:26;;;;;;;;;7.25;6.00;;;;;19.76;51.33;100807.09;5073722;27;45517;-74
2023/07/03 04:55:51;;;;;;;;;9.00;6.50;;;;;19.80;51.54;100806.78;5060500;28;46058;-74
2023/07/03 04:58:17;;;;;;;;;8.75;6.00;;;;;19.82;51.75;100804.03;5073953;27;45243;-74
2023/07/03 05:00:42;;;;;;;;;6.00;4.25;;;;;19.86;51.03;100808.19;5072067;27;64158;-74
2023/07/03 05:03:08;;;;;;;;;8.25;6.25;;;;;19.86;50.99;100810.84;5062836;28;49226;-73
2023/07/03 05:05:34;;;;;;;;;6.25;5.00;;;;;19.90;51.44;100812.34;5052733;28;47177;-72
2023/07/03 05:07:59;;;;;;;;;8.25;5.50;;;;;19.88;51.35;100812.47;5071150;28;45338;-72
2023/07/03 05:10:24;;;;;;;;;7.75;5.00;;;;;19.91;51.07;100814.06;5077329;28;67426;-72
2023/07/03 05:12:50;;;;;;;;;5.00;4.00;;;;;19.89;51.08;100806.19;5063989;28;61917;-72
2023/07/03 05:15:17;;;;;;;;;6.25;5.50;;;;;19.94;51.54;100810.34;5076440;28;46122;-73
2023/07/03 05:17:48;;;;;;;;;10.00;6.25;;;;;19.93;51.33;100809.50;5070528;28;45418;-73
2023/07/03 05:20:15;;;;;;;;;6.75;4.00;;;;;19.93;51.57;100812.16;5074593;27;45367;-73
2023/07/03 05:22:42;;;;;;;;;5.50;5.50;;;;;19.92;51.58;100810.47;5072576;27;45472;-72
2023/07/03 05:25:09;;;;;;;;;10.00;5.25;;;;;19.92;51.02;100807.81;5054144;28;47266;-72
2023/07/03 05:27:34;;;;;;;;;6.75;4.50;;;;;19.89;50.69;100815.97;5072235;28;45811;-73
2023/07/03 05:29:59;;;;;;;;;6.25;5.50;;;;;19.92;51.22;100815.78;5074190;28;45658;-73
2023/07/03 05:32:25;;;;;;;;;6.00;3.75;;;;;19.91;50.87;100819.38;5065653;28;45790;-74
2023/07/03 05:34:50;;;;;;;;;11.25;6.00;;;;;19.89;50.66;100822.13;5072980;28;46283;-74
2023/07/03 05:37:17;;;;;;;;;9.50;7.50;;;;;19.83;50.40;100814.56;5074922;27;64865;-72
2023/07/03 05:39:45;;;;;;;;;7.75;5.00;;;;;19.79;50.48;100810.38;5059388;28;45474;-83
2023/07/03 05:42:11;;;;;;;;;3.50;2.50;;;;;19.70;51.33;100813.59;5067854;28;45362;-80
2023/07/03 05:44:36;;;;;;;;;7.75;5.00;;;;;19.69;50.67;100804.81;5068678;28;46470;-78
2023/07/03 05:47:02;;;;;;;;;6.75;5.00;;;;;19.67;50.67;100793.44;5074994;28;45455;-76
2023/07/03 05:49:28;;;;;;;;;5.00;5.00;;;;;19.67;50.73;100804.06;5074378;27;45504;-75
2023/07/03 05:51:54;;;;;;;;;11.50;5.00;;;;;19.65;51.16;100807.75;5054279;28;45396;-75
2023/07/03 05:54:21;;;;;;;;;16.50;12.50;;;;;19.53;51.02;100796.13;5068213;28;45504;-82
2023/07/03 05:57:09;;;;;;;;;62.00;46.50;;;;;19.53;51.90;100807.59;5069263;28;45441;-77
2023/07/03 05:59:35;;;;;;;;;9.75;6.00;;;;;19.57;51.42;100804.75;5058729;28;45557;-75
2023/07/03 06:02:02;;;;;;;;;8.00;5.00;;;;;19.60;50.80;100808.06;5069499;28;45431;-76
2023/07/03 06:04:27;;;;;;;;;5.25;4.00;;;;;19.53;50.94;100807.59;5075422;27;46252;-79
2023/07/03 06:06:55;;;;;;;;;9.00;6.00;;;;;19.61;51.07;100816.88;5066541;28;65146;-80
2023/07/03 06:09:21;;;;;;;;;6.00;5.75;;;;;19.62;50.91;100813.25;5065754;27;45379;-79
2023/07/03 06:11:47;;;;;;;;;5.00;4.25;;;;;19.62;51.38;100808.81;5075518;27;45351;-73
2023/07/03 06:14:17;;;;;;;;;5.75;4.75;;;;;19.70;50.47;100809.13;5070042;28;74168;-74
2023/07/03 06:16:44;;;;;;;;;8.00;5.00;;;;;19.74;50.42;100815.13;5054499;28;45466;-78
2023/07/03 06:19:10;;;;;;;;;9.25;4.50;;;;;19.78;50.25;100815.78;5073230;28;45820;-80
2023/07/03 06:21:35;;;;;;;;;6.75;5.00;;;;;19.84;50.21;100823.38;5075820;27;45464;-69
2023/07/03 06:24:00;;;;;;;;;7.00;4.25;;;;;19.89;50.06;100822.13;5070573;28;71563;-70
2023/07/03 06:26:29;;;;;;;;;4.00;3.00;;;;;19.91;49.64;100819.38;5070121;27;45421;-79
2023/07/03 06:28:55;;;;;;;;;6.00;3.00;;;;;19.97;49.72;100815.47;5071276;28;45394;-77
2023/07/03 06:31:20;;;;;;;;;6.25;4.25;;;;;19.98;49.65;100811.88;5058588;28;73158;-72
2023/07/03 06:33:46;;;;;;;;;5.75;3.75;;;;;19.94;49.76;100805.03;5064218;28;45346;-71
2023/07/03 06:36:14;;;;;;;;;6.00;4.25;;;;;19.91;50.36;100809.59;5068855;28;73559;-77
2023/07/03 06:38:39;;;;;;;;;4.00;4.00;;;;;19.92;50.42;100819.28;5073578;28;45595;-73
2023/07/03 06:41:04;;;;;;;;;4.75;4.75;;;;;19.96;50.61;100813.78;5077638;27;45545;-71
2023/07/03 06:43:30;;;;;;;;;5.25;4.00;;;;;19.99;50.39;100813.56;5055380;28;72622;-73
2023/07/03 06:45:55;;;;;;;;;7.00;5.00;;;;;20.01;50.46;100814.31;5071147;28;45809;-74
2023/07/03 06:48:20;;;;;;;;;5.00;4.00;;;;;20.03;50.42;100813.25;5075580;27;45451;-74
2023/07/03 06:50:46;;;;;;;;;6.50;4.00;;;;;20.11;50.57;100815.41;5073663;28;67329;-74
2023/07/03 06:53:11;;;;;;;;;6.00;6.00;;;;;20.17;50.33;100812.38;5065288;27;47746;-76
2023/07/03 06:55:36;;;;;;;;;5.50;5.00;;;;;20.33;50.37;100822.81;5063929;28;45439;-74
2023/07/03 06:58:02;;;;;;;;;5.25;4.75;;;;;20.43;49.91;100815.06;5073410;27;55702;-72
2023/07/03 07:00:29;;;;;;;;;6.25;4.00;;;;;20.53;49.43;100810.84;5075294;27;45541;-72
2023/07/03 07:02:54;;;;;;;;;6.75;3.50;;;;;20.60;49.38;100808.63;5054707;27;47084;-74
2023/07/03 07:05:20;;;;;;;;;6.00;4.00;;;;;20.64;49.12;100805.66;5070806;28;61291;-71
2023/07/03 07:07:46;;;;;;;;;5.00;4.00;;;;;20.73;48.95;100817.50;5070782;27;45542;-72
2023/07/03 07:10:11;;;;;;;;;11.50;4.50;;;;;20.88;49.39;100822.75;5073195;27;45256;-73
2023/07/03 07:12:36;;;;;;;;;4.00;3.00;;;;;20.98;48.70;100818.47;5072291;27;62788;-74
2023/07/03 07:15:03;;;;;;;;;7.75;5.00;;;;;21.12;48.90;100826.31;5078888;28;51412;-72
2023/07/03 07:17:28;;;;;;;;;5.00;4.00;;;;;21.21;48.84;100823.03;5061183;28;45603;-72
2023/07/03 07:19:53;;;;;;;;;5.25;5.00;;;;;21.29;48.59;100826.97;5080326;27;45204;-73
2023/07/03 07:22:19;;;;;;;;;4.00;4.00;;;;;21.34;48.48;100819.53;5074582;28;47124;-73
2023/07/03 07:24:44;;;;;;;;;6.50;4.75;;;;;21.43;48.11;100838.34;5068497;28;68994;-72
2023/07/03 07:27:09;;;;;;;;;6.50;5.00;;;;;21.51;47.98;100836.97;5076932;28;45288;-72
2023/07/03 07:29:35;;;;;;;;;4.50;4.00;;;;;21.58;47.99;100831.13;5076474;27;64501;-73
2023/07/03 07:32:00;;;;;;;;;7.00;4.00;;;;;21.65;47.89;100820.84;5077303;28;46924;-72
2023/07/03 07:34:26;;;;;;;;;6.00;4.00;;;;;21.74;47.54;100836.19;5079471;28;45341;-72
2023/07/03 07:36:51;;;;;;;;;8.50;4.50;;;;;21.80;47.86;100830.41;5077209;28;45649;-73
2023/07/03 07:39:19;;;;;;;;;4.00;4.00;;;;;21.85;47.37;100822.09;5076371;28;45403;-75
2023/07/03 07:41:45;;;;;;;;;5.75;3.50;;;;;21.86;47.27;100833.59;5073216;28;47979;-75
2023/07/03 07:44:11;;;;;;;;;4.25;4.25;;;;;21.86;47.49;100830.91;5073442;27;45716;-71
2023/07/03 07:46:36;;;;;;;;;4.75;4.00;;;;;21.87;47.10;100838.81;5062173;28;45214;-72
2023/07/03 07:49:02;;;;;;;;;4.00;4.00;;;;;21.88;47.40;100837.81;5072363;28;45359;-72
2023/07/03 07:51:28;;;;;;;;;7.75;4.75;;;;;21.89;47.74;100842.19;5078307;28;46344;-75
2023/07/03 07:53:53;;;;;;;;;7.00;6.25;;;;;21.91;47.44;100842.09;5057295;28;45878;-71
2023/07/03 07:56:20;;;;;;;;;7.75;6.00;;;;;21.95;47.09;100839.06;5076537;28;45499;-72
2023/07/03 07:58:45;;;;;;;;;3.75;3.75;;;;;21.98;46.73;100838.84;5069296;27;45447;-72
2023/07/03 08:01:14;;;;;;;;;7.00;4.00;;;;;21.96;47.32;100840.78;5058041;28;46963;-73
2023/07/03 08:03:40;;;;;;;;;6.00;6.00;;;;;21.90;46.95;100838.59;5054230;28;45678;-72
2023/07/03 08:06:05;;;;;;;;;7.00;5.00;;;;;21.78;47.38;100837.66;5080381;27;45802;-71
2023/07/03 08:08:32;;;;;;;;;5.75;3.75;;;;;21.77;47.01;100837.75;5079108;27;45406;-71
2023/07/03 08:10:59;;;;;;;;;5.75;3.25;;;;;21.83;47.29;100847.13;5056133;28;47364;-72
2023/07/03 08:13:27;;;;;;;;;4.75;4.75;;;;;21.85;46.94;100834.53;5069173;27;45480;-72
2023/07/03 08:15:54;;;;;;;;;8.25;3.50;;;;;21.83;46.69;100845.28;5055619;28;46438;-71
2023/07/03 08:18:19;;;;;;;;;9.00;6.25;;;;;21.86;46.18;100841.56;5053893;28;45498;-71
2023/07/03 08:20:45;;;;;;;;;7.00;4.25;;;;;21.89;46.10;100841.34;5075169;27;47887;-72
2023/07/03 08:23:11;;;;;;;;;4.50;4.00;;;;;21.97;45.98;100850.50;5059139;27;45282;-72
2023/07/03 08:25:37;;;;;;;;;8.25;6.25;;;;;22.06;45.99;100848.97;5084209;27;55322;-71
2023/07/03 08:28:02;;;;;;;;;4.75;4.50;;;;;22.09;45.42;100845.22;5072657;28;45478;-71
2023/07/03 08:30:28;;;;;;;;;8.25;5.00;;;;;22.15;45.80;100842.06;5086931;27;51094;-71
2023/07/03 08:32:53;;;;;;;;;6.50;5.25;;;;;22.24;45.70;100835.22;5063297;27;45371;-71
2023/07/03 08:35:19;;;;;;;;;5.00;5.00;;;;;22.31;45.78;100842.69;5086456;27;45319;-74
2023/07/03 08:37:45;;;;;;;;;8.25;5.00;;;;;22.35;45.27;100844.16;5073243;28;45939;-71
2023/07/03 08:40:15;;;;;;;;;5.00;5.00;;;;;22.34;45.65;100846.94;5078268;27;73683;-71
2023/07/03 08:42:47;;;;;;;;;6.50;4.25;;;;;22.36;45.79;100842.31;5070622;27;45679;-72
2023/07/03 08:45:16;;;;;;;;;7.25;4.75;;;;;22.48;45.17;100837.91;5056421;28;45429;-73
2023/07/03 08:47:41;;;;;;;;;5.00;4.00;;;;;22.46;44.95;100838.00;5073448;27;45414;-72
2023/07/03 08:50:07;;;;;;;;;9.00;6.00;;;;;22.52;45.29;100840.22;5059977;28;51646;-70
2023/07/03 08:52:43;;;;;;;;;7.50;5.00;;;;;22.49;45.22;100848.47;5067609;27;45529;-72
2023/07/03 08:55:12;;;;;;;;;6.00;5.00;;;;;22.39;44.93;100846.59;5078976;27;45380;-73
2023/07/03 08:57:38;;;;;;;;;6.50;5.00;;;;;22.29;45.42;100841.97;5080279;27;45463;-73
2023/07/03 09:00:10;;;;;;;;;5.75;4.50;;;;;22.28;45.08;100845.59;5079991;27;64072;-77
2023/07/03 09:02:44;;;;;;;;;7.25;4.75;;;;;22.25;45.66;100852.94;5076868;27;45536;-72
2023/07/03 09:05:30;;;;;;;;;4.50;4.00;;;;;22.24;45.48;100849.41;5075540;27;45461;-75
2023/07/03 09:08:05;;;;;;;;;5.50;4.00;;;;;22.23;45.67;100853.03;5075139;27;45595;-76
2023/07/03 09:10:40;;;;;;;;;5.00;5.00;;;;;22.13;45.56;100857.34;5077326;28;45547;-75
2023/07/03 09:13:10;;;;;;;;;8.00;6.00;;;;;22.03;45.26;100865.19;5054566;28;45627;-80
2023/07/03 09:15:38;;;;;;;;;9.50;5.50;;;;;21.96;45.38;100863.94;5059948;28;45316;-76
2023/07/03 09:18:18;;;;;;;;;6.00;5.25;;;;;21.94;45.77;100855.19;5053914;28;45461;-77
2023/07/03 09:20:45;;;;;;;;;4.25;3.50;;;;;22.03;45.71;100862.50;5067220;28;45389;-75
2023/07/03 09:23:20;;;;;;;;;5.50;5.00;;;;;22.07;44.81;100855.13;5066560;27;60962;-76
2023/07/03 09:25:53;;;;;;;;;4.25;4.25;;;;;22.12;45.12;100855.66;5078667;28;45390;-77
2023/07/03 09:28:19;;;;;;;;;6.75;5.50;;;;;22.09;45.02;100851.38;5055565;28;45804;-74
2023/07/03 09:30:44;;;;;;;;;9.75;6.25;;;;;22.17;45.63;100845.50;5075929;27;45557;-74
2023/07/03 09:33:09;;;;;;;;;4.00;4.00;;;;;22.36;45.00;100847.66;5070452;27;45303;-71
2023/07/03 09:35:39;;;;;;;;;51.50;38.50;;;;;22.46;45.13;100848.69;5067047;28;62060;-72
2023/07/03 09:38:10;;;;;;;;;4.00;4.00;;;;;22.57;44.43;100831.84;5075662;28;45514;-73
2023/07/03 09:40:37;;;;;;;;;9.25;7.00;;;;;22.73;44.66;100832.41;5056162;28;47417;-74
2023/07/03 09:43:03;;;;;;;;;7.50;4.50;;;;;22.87;44.43;100844.66;5075342;27;45736;-74
2023/07/03 09:45:34;;;;;;;;;5.75;5.25;;;;;22.93;44.04;100849.53;5077080;27;45312;-78
2023/07/03 09:48:02;;;;;;;;;4.50;3.50;;;;;23.13;44.11;100845.34;5053471;28;45519;-74
2023/07/03 09:50:34;;;;;;;;;5.25;4.25;;;;;23.30;43.41;100843.16;5066747;28;45491;-73
2023/07/03 09:53:01;;;;;;;;;6.75;4.50;;;;;23.43;43.50;100833.22;5062393;27;45842;-74
2023/07/03 09:55:26;;;;;;;;;6.50;4.75;;;;;23.59;43.24;100843.53;5059591;28;45479;-75
2023/07/03 09:57:52;;;;;;;;;6.25;4.00;;;;;23.73;42.28;100850.44;5072097;28;45525;-76
2023/07/03 10:00:21;;;;;;;;;5.50;4.50;;;;;23.78;42.75;100852.72;5070526;28;50189;-74
2023/07/03 10:02:56;;;;;;;;;6.00;2.00;;;;;23.74;42.81;100845.94;5057939;27;45482;-74
2023/07/03 10:05:33;;;;;;;;;6.50;4.25;;;;;23.81;42.23;100852.50;5057322;28;45377;-74
2023/07/03 10:08:04;;;;;;;;;5.25;2.75;;;;;23.87;42.43;100854.69;5057928;28;45461;-74
2023/07/03 10:10:33;;;;;;;;;3.50;2.25;;;;;23.88;42.30;100856.38;5072896;27;45355;-75
2023/07/03 10:13:05;;;;;;;;;8.25;4.75;;;;;23.83;42.11;100863.91;5057393;28;45317;-75
2023/07/03 10:15:34;;;;;;;;;13.50;9.00;;;;;23.83;42.80;100856.78;5062055;27;45375;-75
2023/07/03 10:18:04;;;;;;;;;8.75;4.75;;;;;23.89;42.29;100866.09;5057650;28;45426;-75
2023/07/03 10:20:36;;;;;;;;;7.25;6.25;;;;;23.91;42.36;100865.97;5069613;28;47550;-75
2023/07/03 10:23:03;;;;;;;;;8.50;5.75;;;;;24.04;41.71;100870.19;5070332;28;45446;-75
2023/07/03 10:25:36;;;;;;;;;4.25;4.00;;;;;24.13;41.15;100867.75;5077554;28;45250;-76
2023/07/03 10:28:07;;;;;;;;;5.50;3.25;;;;;24.21;40.73;100876.84;5080122;28;45579;-75
2023/07/03 10:30:35;;;;;;;;;4.25;4.00;;;;;24.24;40.32;100876.59;5078246;27;47217;-75
2023/07/03 10:33:05;;;;;;;;;3.25;3.25;;;;;24.22;40.28;100866.97;5071821;27;45410;-74
2023/07/03 10:35:32;;;;;;;;;5.50;3.25;;;;;24.24;40.52;100884.59;5064290;28;45565;-75
2023/07/03 10:38:20;;;;;;;;;4.25;2.25;;;;;24.24;40.63;100873.03;5058038;27;45747;-75
2023/07/03 10:41:24;;;;;;;;;5.50;4.25;;;;;24.30;39.93;100863.69;5080974;27;48303;-75
2023/07/03 10:43:56;;;;;;;;;3.50;3.50;;;;;24.38;40.46;100870.09;5075873;27;45405;-75
2023/07/03 10:46:27;;;;;;;;;4.25;3.25;;;;;24.37;40.18;100867.53;5080292;27;45386;-75
2023/07/03 10:48:53;;;;;;;;;7.50;4.75;;;;;24.25;39.36;100859.53;5074505;27;46415;-75
2023/07/03 10:51:33;;;;;;;;;4.25;2.25;;;;;24.17;39.21;100861.16;5080822;27;45443;-75
2023/07/03 10:54:16;;;;;;;;;6.25;4.00;;;;;24.08;39.86;100852.06;5055734;28;45799;-75
2023/07/03 10:56:44;;;;;;;;;6.50;3.25;;;;;23.99;39.74;100855.50;5074033;28;45338;-74
2023/07/03 10:59:21;;;;;;;;;11.25;3.25;;;;;23.83;39.80;100853.22;5074493;27;45391;-75
2023/07/03 11:01:56;;;;;;;;;7.25;3.00;;;;;23.73;38.94;100855.78;5070157;27;45652;-74
2023/07/03 11:04:32;;;;;;;;;8.25;6.75;;;;;23.67;38.79;100854.47;5075821;28;45633;-75
2023/07/03 11:07:09;;;;;;;;;4.75;3.00;;;;;23.70;38.93;100862.19;5076911;28;46330;-75
2023/07/03 11:09:59;;;;;;;;;6.25;3.25;;;;;23.73;38.56;100860.25;5081306;28;45577;-75
2023/07/03 11:12:24;;;;;;;;;10.00;7.75;;;;;23.75;38.79;100845.81;5052778;28;48483;-75
2023/07/03 11:15:03;;;;;;;;;5.00;5.00;;;;;23.66;37.22;100849.22;5081480;27;45350;-75
2023/07/03 11:17:50;;;;;;;;;4.50;2.25;;;;;23.70;37.16;100851.50;5077150;28;45360;-74
2023/07/03 11:20:42;;;;;;;;;7.00;3.25;;;;;23.76;37.76;100847.53;5068475;28;45578;-74
2023/07/03 11:23:27;;;;;;;;;4.25;3.25;;;;;23.76;36.21;100854.66;5063691;28;47196;-75
2023/07/03 11:25:58;;;;;;;;;5.25;2.25;;;;;23.73;35.71;100844.22;5079104;28;45578;-75
2023/07/03 11:28:36;;;;;;;;;4.00;2.25;;;;;23.67;35.47;100851.78;5094944;27;45532;-75